createdAt,value
2018-05-29T00:00:41.876Z,17.07
2018-05-29T00:03:10.071Z,17.37
2018-05-29T00:08:21.688Z,16.97
2018-05-29T00:10:49.860Z,16.67
2018-05-29T00:13:18.025Z,16.40
2018-05-29T00:15:46.224Z,15.43
2018-05-29T00:18:14.386Z,16.67
2018-05-29T00:20:42.572Z,16.07
2018-05-29T00:23:10.746Z,16.53
2018-05-29T00:25:38.931Z,17.03
2018-05-29T00:28:07.102Z,15.60
2018-05-29T00:30:35.330Z,15.70
2018-05-29T00:33:03.526Z,16.47
2018-05-29T00:35:31.694Z,16.13
2018-05-29T00:37:59.892Z,16.23
2018-05-29T00:40:28.090Z,17.10
2018-05-29T00:42:56.271Z,16.60
2018-05-29T00:45:24.448Z,16.00
2018-05-29T00:47:52.603Z,17.03
2018-05-29T00:50:20.793Z,16.63
2018-05-29T00:52:48.959Z,17.23
2018-05-29T00:55:37.084Z,16.50
2018-05-29T00:58:07.733Z,16.70
2018-05-29T01:00:35.945Z,16.73
2018-05-29T01:03:04.120Z,17.10
2018-05-29T01:05:32.307Z,16.43
2018-05-29T01:08:00.491Z,17.73
2018-05-29T01:10:28.701Z,17.47
2018-05-29T01:12:56.878Z,17.57
2018-05-29T01:15:25.058Z,17.83
2018-05-29T01:17:53.225Z,19.20
2018-05-29T01:20:21.406Z,19.27
2018-05-29T01:22:49.908Z,19.03
2018-05-29T01:25:18.084Z,18.93
2018-05-29T01:27:46.291Z,18.97
2018-05-29T01:30:14.453Z,18.67
2018-05-29T01:32:42.650Z,19.33
2018-05-29T01:35:10.820Z,19.20
2018-05-29T01:37:39.014Z,19.53
2018-05-29T01:40:07.192Z,18.73
2018-05-29T01:42:35.402Z,19.37
2018-05-29T01:45:03.603Z,18.67
2018-05-29T01:47:31.804Z,19.87
2018-05-29T01:50:00.007Z,20.90
2018-05-29T01:52:28.155Z,20.10
2018-05-29T01:54:56.374Z,18.70
2018-05-29T01:57:24.540Z,19.83
2018-05-29T01:59:52.744Z,18.57
2018-05-29T02:02:20.903Z,19.77
2018-05-29T02:04:49.112Z,19.97
2018-05-29T02:07:17.275Z,19.40
2018-05-29T02:09:45.482Z,18.50
2018-05-29T02:12:13.645Z,18.33
2018-05-29T02:14:41.844Z,19.47
2018-05-29T02:17:10.061Z,19.33
2018-05-29T02:19:38.274Z,20.00
2018-05-29T02:22:06.444Z,19.27
2018-05-29T02:24:34.654Z,18.87
2018-05-29T02:27:02.825Z,17.83
2018-05-29T02:29:31.011Z,19.33
2018-05-29T02:31:59.183Z,18.87
2018-05-29T02:34:27.353Z,19.33
2018-05-29T02:36:55.549Z,18.13
2018-05-29T02:39:23.709Z,19.83
2018-05-29T02:41:51.899Z,19.67
2018-05-29T02:44:20.079Z,20.03
2018-05-29T02:46:48.257Z,21.33
2018-05-29T02:49:16.543Z,21.27
2018-05-29T02:51:44.710Z,20.40
2018-05-29T02:54:12.920Z,22.30
2018-05-29T02:56:41.135Z,20.80
2018-05-29T02:59:09.310Z,19.97
2018-05-29T03:01:37.896Z,21.53
2018-05-29T03:04:06.584Z,19.57
2018-05-29T03:06:34.813Z,19.97
2018-05-29T03:09:02.972Z,21.43
2018-05-29T03:11:31.174Z,20.63
2018-05-29T03:13:59.351Z,20.30
2018-05-29T03:16:27.534Z,20.80
2018-05-29T03:18:55.717Z,21.10
2018-05-29T03:21:23.884Z,20.70
2018-05-29T03:23:52.092Z,21.33
2018-05-29T03:26:20.253Z,20.87
2018-05-29T03:28:48.434Z,20.90
2018-05-29T03:31:16.639Z,22.60
2018-05-29T03:33:44.827Z,21.33
2018-05-29T03:36:12.997Z,22.93
2018-05-29T03:38:41.156Z,21.23
2018-05-29T03:41:09.351Z,22.07
2018-05-29T03:43:37.526Z,20.87
2018-05-29T03:46:05.725Z,20.97
2018-05-29T03:48:33.925Z,20.67
2018-05-29T03:51:02.138Z,19.50
2018-05-29T03:53:30.364Z,20.87
2018-05-29T03:55:58.528Z,21.50
2018-05-29T03:58:26.739Z,21.13
2018-05-29T04:00:54.900Z,21.83
2018-05-29T04:03:23.090Z,20.53
2018-05-29T04:05:51.267Z,20.57
2018-05-29T04:08:19.470Z,20.37
2018-05-29T04:10:47.642Z,20.67
2018-05-29T04:13:15.861Z,20.90
2018-05-29T04:15:44.024Z,21.03
2018-05-29T04:18:12.202Z,24.40
2018-05-29T04:20:40.388Z,21.70
2018-05-29T04:23:08.674Z,20.10
2018-05-29T04:25:36.844Z,21.40
2018-05-29T04:28:05.049Z,21.30
2018-05-29T04:30:33.200Z,21.40
2018-05-29T04:33:01.391Z,21.27
2018-05-29T04:35:29.591Z,20.83
2018-05-29T04:37:57.788Z,20.07
2018-05-29T04:40:25.955Z,20.43
2018-05-29T04:42:54.901Z,19.90
2018-05-29T04:45:23.232Z,18.60
2018-05-29T04:47:51.438Z,19.20
2018-05-29T04:50:19.604Z,18.60
2018-05-29T04:52:48.556Z,19.33
2018-05-29T04:55:16.934Z,21.80
2018-05-29T04:57:45.108Z,19.63
2018-05-29T05:00:13.322Z,19.67
2018-05-29T05:02:41.499Z,19.77
2018-05-29T05:05:09.684Z,19.40
2018-05-29T05:07:37.893Z,19.53
2018-05-29T05:10:06.063Z,19.37
2018-05-29T05:12:34.257Z,18.77
2018-05-29T05:15:02.445Z,18.90
2018-05-29T05:17:30.657Z,19.13
2018-05-29T05:19:58.839Z,18.77
2018-05-29T05:22:27.050Z,101.57
2018-05-29T05:24:55.294Z,20.80
2018-05-29T05:27:23.484Z,19.83
2018-05-29T05:29:51.673Z,19.37
2018-05-29T05:32:19.837Z,19.73
2018-05-29T05:34:48.043Z,20.23
2018-05-29T05:37:16.227Z,19.97
2018-05-29T05:39:44.436Z,19.47
2018-05-29T05:42:12.582Z,19.63
2018-05-29T05:44:40.773Z,19.60
2018-05-29T05:47:08.976Z,20.53
2018-05-29T05:49:37.176Z,19.90
2018-05-29T05:52:05.319Z,20.20
2018-05-29T05:54:33.517Z,19.10
2018-05-29T05:57:01.691Z,18.40
2018-05-29T05:59:29.889Z,18.23
2018-05-29T06:01:58.090Z,19.00
2018-05-29T06:04:26.268Z,18.03
2018-05-29T06:06:54.494Z,17.80
2018-05-29T06:09:22.686Z,18.40
2018-05-29T06:11:50.851Z,19.20
2018-05-29T06:14:19.045Z,19.00
2018-05-29T06:16:47.259Z,19.33
2018-05-29T06:19:15.479Z,18.20
2018-05-29T06:21:43.637Z,19.40
2018-05-29T06:24:11.807Z,18.37
2018-05-29T06:26:39.988Z,17.30
2018-05-29T06:29:08.185Z,17.50
2018-05-29T06:31:36.345Z,17.40
2018-05-29T06:34:04.563Z,15.03
2018-05-29T06:36:32.763Z,14.23
2018-05-29T06:39:00.932Z,14.20
2018-05-29T06:41:29.145Z,13.80
2018-05-29T06:43:57.312Z,12.83
2018-05-29T06:46:25.513Z,13.03
2018-05-29T06:48:53.687Z,13.40
2018-05-29T06:51:21.902Z,12.10
2018-05-29T06:53:50.108Z,12.80
2018-05-29T06:56:18.304Z,13.27
2018-05-29T06:58:46.489Z,12.53
2018-05-29T07:01:14.688Z,13.30
2018-05-29T07:03:42.896Z,11.80
2018-05-29T07:06:11.081Z,11.77
2018-05-29T07:08:39.285Z,11.13
2018-05-29T07:11:07.548Z,11.07
2018-05-29T07:13:35.784Z,11.90
2018-05-29T07:16:03.980Z,10.33
2018-05-29T07:18:32.154Z,10.77
2018-05-29T07:21:00.357Z,11.03
2018-05-29T07:23:28.523Z,10.57
2018-05-29T07:25:56.717Z,9.77
2018-05-29T07:28:24.895Z,10.30
2018-05-29T07:30:53.107Z,9.77
2018-05-29T07:33:21.260Z,9.70
2018-05-29T07:35:49.407Z,10.07
2018-05-29T07:38:17.611Z,10.10
2018-05-29T07:40:45.817Z,9.83
2018-05-29T07:43:13.989Z,10.87
2018-05-29T07:45:42.160Z,9.35
2018-05-29T07:48:10.563Z,9.63
2018-05-29T07:50:38.715Z,10.03
2018-05-29T07:53:06.874Z,9.37
2018-05-29T07:55:35.083Z,8.90
2018-05-29T07:58:03.262Z,10.47
2018-05-29T08:00:31.461Z,10.80
2018-05-29T08:02:59.628Z,10.23
2018-05-29T08:05:27.811Z,10.65
2018-05-29T08:07:56.021Z,9.52
2018-05-29T08:10:24.165Z,11.18
2018-05-29T08:12:52.375Z,11.20
2018-05-29T08:15:20.530Z,11.32
2018-05-29T08:17:48.727Z,10.00
2018-05-29T08:20:16.886Z,11.27
2018-05-29T08:22:45.079Z,10.48
2018-05-29T08:25:13.262Z,9.88
2018-05-29T08:27:41.423Z,9.73
2018-05-29T08:30:09.629Z,10.52
2018-05-29T08:32:37.810Z,10.60
2018-05-29T08:35:05.975Z,10.27
2018-05-29T08:37:34.308Z,9.30
2018-05-29T08:40:02.525Z,9.70
2018-05-29T08:42:30.715Z,9.20
2018-05-29T08:44:58.873Z,9.23
2018-05-29T08:47:27.066Z,10.48
2018-05-29T08:49:55.242Z,9.55
2018-05-29T08:52:23.408Z,9.85
2018-05-29T08:54:51.620Z,11.27
2018-05-29T08:57:19.831Z,10.30
2018-05-29T08:59:48.011Z,10.80
2018-05-29T09:02:16.354Z,12.10
2018-05-29T09:04:44.632Z,11.15
2018-05-29T09:07:12.846Z,11.65
2018-05-29T09:09:41.016Z,11.40
2018-05-29T09:12:09.217Z,11.52
2018-05-29T09:14:37.415Z,10.25
2018-05-29T09:17:05.577Z,10.52
2018-05-29T09:19:33.771Z,10.45
2018-05-29T09:22:01.926Z,10.00
2018-05-29T09:24:30.099Z,10.05
2018-05-29T09:26:58.287Z,10.82
2018-05-29T09:29:26.458Z,10.35
2018-05-29T09:31:54.695Z,9.68
2018-05-29T09:34:22.850Z,11.38
2018-05-29T09:36:51.035Z,10.18
2018-05-29T09:39:19.217Z,11.45
2018-05-29T09:41:47.426Z,11.55
2018-05-29T09:44:15.626Z,10.43
2018-05-29T09:46:43.834Z,11.43
2018-05-29T09:49:11.987Z,12.37
2018-05-29T09:51:40.193Z,12.55
2018-05-29T09:54:08.366Z,11.63
2018-05-29T09:56:36.588Z,12.07
2018-05-29T09:59:04.865Z,11.95
2018-05-29T10:01:33.050Z,11.27
2018-05-29T10:04:01.244Z,12.13
2018-05-29T10:06:29.474Z,11.55
2018-05-29T10:08:57.660Z,11.27
2018-05-29T10:11:25.844Z,11.23
2018-05-29T10:13:53.998Z,12.18
2018-05-29T10:16:22.196Z,12.00
2018-05-29T10:18:50.376Z,12.20
2018-05-29T10:21:18.562Z,11.43
2018-05-29T10:23:46.809Z,11.57
2018-05-29T10:26:15.055Z,12.25
2018-05-29T10:28:43.242Z,11.07
2018-05-29T10:31:11.410Z,11.00
2018-05-29T10:33:39.633Z,10.90
2018-05-29T10:36:07.797Z,11.60
2018-05-29T10:38:36.011Z,11.95
2018-05-29T10:41:04.181Z,12.55
2018-05-29T10:43:32.382Z,10.93
2018-05-29T10:46:00.570Z,13.65
2018-05-29T10:48:28.755Z,13.27
2018-05-29T10:50:56.932Z,12.32
2018-05-29T10:53:25.202Z,11.25
2018-05-29T10:55:53.401Z,12.80
2018-05-29T10:58:21.593Z,11.73
2018-05-29T11:00:49.789Z,12.10
2018-05-29T11:03:17.988Z,11.82
2018-05-29T11:05:46.167Z,11.40
2018-05-29T11:08:14.328Z,11.68
2018-05-29T11:10:42.515Z,11.40
2018-05-29T11:13:10.687Z,12.75
2018-05-29T11:15:38.867Z,11.95
2018-05-29T11:18:07.072Z,11.82
2018-05-29T11:20:35.227Z,12.30
2018-05-29T11:23:03.411Z,12.43
2018-05-29T11:25:31.580Z,11.32
2018-05-29T11:27:59.797Z,11.38
2018-05-29T11:30:28.015Z,10.75
2018-05-29T11:32:56.198Z,11.57
2018-05-29T11:35:24.392Z,10.38
2018-05-29T11:37:52.558Z,11.12
2018-05-29T11:40:20.773Z,11.77
2018-05-29T11:42:49.012Z,11.48
2018-05-29T11:45:17.206Z,11.75
2018-05-29T11:47:45.409Z,11.50
2018-05-29T11:50:13.570Z,12.02
2018-05-29T11:52:41.771Z,12.48
2018-05-29T11:55:09.940Z,11.15
2018-05-29T11:57:38.213Z,12.27
2018-05-29T12:00:06.398Z,12.02
2018-05-29T12:02:34.604Z,12.48
2018-05-29T12:05:02.770Z,10.77
2018-05-29T12:07:30.948Z,10.77
2018-05-29T12:09:59.138Z,11.32
2018-05-29T12:12:27.307Z,11.25
2018-05-29T12:14:55.534Z,11.70
2018-05-29T12:17:23.693Z,11.23
2018-05-29T12:19:51.892Z,11.68
2018-05-29T12:22:20.108Z,11.50
2018-05-29T12:24:48.264Z,10.85
2018-05-29T12:27:16.467Z,12.30
2018-05-29T12:29:44.672Z,12.05
2018-05-29T12:32:12.845Z,11.18
2018-05-29T12:34:41.043Z,10.88
2018-05-29T12:37:09.240Z,11.93
2018-05-29T12:39:37.430Z,12.40
2018-05-29T12:42:05.617Z,11.63
2018-05-29T12:44:33.823Z,11.25
2018-05-29T12:47:02.043Z,12.63
2018-05-29T12:49:30.227Z,11.75
2018-05-29T12:51:58.419Z,11.63
2018-05-29T12:54:26.590Z,12.23
2018-05-29T12:56:54.793Z,12.35
2018-05-29T12:59:22.973Z,12.23
2018-05-29T13:01:51.173Z,12.30
2018-05-29T13:04:19.350Z,11.30
2018-05-29T13:06:47.538Z,12.80
2018-05-29T13:09:15.765Z,12.63
2018-05-29T13:11:43.943Z,12.27
2018-05-29T13:14:12.151Z,11.20
2018-05-29T13:16:40.359Z,11.82
2018-05-29T13:19:08.573Z,11.30
2018-05-29T13:21:36.755Z,12.63
2018-05-29T13:24:04.971Z,11.77
2018-05-29T13:26:33.193Z,13.02
2018-05-29T13:29:01.360Z,12.68
2018-05-29T13:31:29.544Z,12.77
2018-05-29T13:33:57.725Z,13.52
2018-05-29T13:36:25.925Z,13.68
2018-05-29T13:38:54.098Z,13.85
2018-05-29T13:41:22.284Z,13.50
2018-05-29T13:43:50.460Z,13.98
2018-05-29T13:46:18.666Z,12.88
2018-05-29T13:48:46.851Z,14.43
2018-05-29T13:51:15.069Z,13.30
2018-05-29T13:53:43.235Z,13.95
2018-05-29T13:56:11.433Z,13.32
2018-05-29T13:58:39.609Z,14.02
2018-05-29T14:01:07.776Z,13.52
2018-05-29T14:03:35.996Z,13.77
2018-05-29T14:06:04.165Z,14.75
2018-05-29T14:08:32.391Z,14.25
2018-05-29T14:11:00.587Z,13.73
2018-05-29T14:13:28.781Z,13.25
2018-05-29T14:15:56.987Z,14.23
2018-05-29T14:18:25.230Z,22.70
2018-05-29T14:20:53.438Z,25.85
2018-05-29T14:23:21.606Z,35.60
2018-05-29T14:25:49.865Z,37.00
2018-05-29T14:28:18.027Z,36.20
2018-05-29T14:30:46.235Z,36.25
2018-05-29T14:33:14.444Z,36.83
2018-05-29T14:35:42.595Z,34.30
2018-05-29T14:38:10.811Z,37.58
2018-05-29T14:40:38.984Z,35.22
2018-05-29T14:43:07.185Z,34.45
2018-05-29T14:45:35.334Z,31.67
2018-05-29T14:48:03.556Z,26.55
2018-05-29T14:50:31.731Z,22.83
2018-05-29T14:52:59.902Z,14.07
2018-05-29T14:55:28.106Z,9.52
2018-05-29T14:57:56.298Z,7.63
2018-05-29T15:00:24.495Z,7.57
2018-05-29T15:02:52.655Z,7.43
2018-05-29T15:05:20.836Z,7.63
2018-05-29T15:07:49.013Z,7.07
2018-05-29T15:10:17.190Z,7.47
2018-05-29T15:12:45.388Z,7.57
2018-05-29T15:15:13.530Z,7.20
2018-05-29T15:17:41.721Z,7.73
2018-05-29T15:20:09.879Z,8.40
2018-05-29T15:22:38.224Z,8.43
2018-05-29T15:25:06.399Z,9.03
2018-05-29T15:27:34.573Z,7.53
2018-05-29T15:30:02.766Z,8.43
2018-05-29T15:32:30.930Z,9.00
2018-05-29T15:34:59.238Z,8.53
2018-05-29T15:37:27.393Z,7.10
2018-05-29T15:39:55.645Z,6.30
2018-05-29T15:42:23.799Z,6.63
2018-05-29T15:44:51.952Z,6.00
2018-05-29T15:47:20.258Z,5.97
2018-05-29T15:49:48.418Z,5.70
2018-05-29T15:52:16.675Z,5.30
2018-05-29T15:54:44.788Z,6.57
2018-05-29T15:57:12.959Z,6.43
2018-05-29T15:59:41.151Z,7.70
2018-05-29T16:02:09.331Z,6.77
2018-05-29T16:04:37.499Z,6.70
2018-05-29T16:07:05.658Z,7.43
2018-05-29T16:09:33.852Z,7.87
2018-05-29T16:12:02.012Z,7.13
2018-05-29T16:14:30.171Z,8.77
2018-05-29T16:16:58.360Z,8.00
2018-05-29T16:19:26.543Z,8.40
2018-05-29T16:21:54.700Z,7.50
2018-05-29T16:24:22.978Z,8.13
2018-05-29T16:26:51.151Z,21.03
2018-05-29T16:29:19.398Z,8.00
2018-05-29T16:31:47.558Z,9.10
2018-05-29T16:34:15.758Z,8.53
2018-05-29T16:36:43.948Z,9.50
2018-05-29T16:39:12.309Z,8.17
2018-05-29T16:41:40.464Z,9.03
2018-05-29T16:44:08.639Z,9.80
2018-05-29T16:46:36.839Z,10.10
2018-05-29T16:49:05.025Z,9.10
2018-05-29T16:51:33.197Z,10.33
2018-05-29T16:54:01.383Z,10.03
2018-05-29T16:56:29.623Z,9.73
2018-05-29T16:58:57.791Z,20.57
2018-05-29T17:01:25.967Z,12.83
2018-05-29T17:03:54.185Z,12.07
2018-05-29T17:06:22.437Z,11.57
2018-05-29T17:08:50.639Z,10.53
2018-05-29T17:11:18.783Z,9.90
2018-05-29T17:13:46.977Z,10.13
2018-05-29T17:16:15.145Z,10.47
2018-05-29T17:18:43.309Z,10.83
2018-05-29T17:21:11.582Z,10.63
2018-05-29T17:23:39.732Z,10.70
2018-05-29T17:26:07.950Z,11.37
2018-05-29T17:28:36.117Z,10.60
2018-05-29T17:31:04.292Z,12.53
2018-05-29T17:33:32.485Z,12.23
2018-05-29T17:36:00.635Z,12.90
2018-05-29T17:38:28.856Z,11.80
2018-05-29T17:40:57.011Z,12.00
2018-05-29T17:43:25.232Z,12.07
2018-05-29T17:45:53.385Z,11.73
2018-05-29T17:48:21.593Z,11.23
2018-05-29T17:50:49.842Z,12.20
2018-05-29T17:53:17.994Z,11.90
2018-05-29T17:55:46.226Z,12.63
2018-05-29T17:58:14.613Z,12.17
2018-05-29T18:00:43.219Z,13.60
2018-05-29T18:03:11.441Z,11.63
2018-05-29T18:05:39.654Z,11.50
2018-05-29T18:08:07.898Z,11.43
2018-05-29T18:10:36.149Z,11.23
2018-05-29T18:13:04.294Z,10.23
2018-05-29T18:15:32.494Z,12.87
2018-05-29T18:18:00.658Z,10.40
2018-05-29T18:20:28.860Z,10.40
2018-05-29T18:22:57.048Z,10.17
2018-05-29T18:25:25.324Z,10.07
2018-05-29T18:27:53.538Z,10.30
2018-05-29T18:30:21.707Z,9.90
2018-05-29T18:32:49.931Z,9.40
2018-05-29T18:35:18.096Z,10.50
2018-05-29T18:37:46.267Z,9.47
2018-05-29T18:40:14.457Z,9.67
2018-05-29T18:42:42.623Z,9.43
2018-05-29T18:45:10.781Z,8.80
2018-05-29T18:47:38.988Z,9.13
2018-05-29T18:50:07.254Z,8.53
2018-05-29T18:52:35.383Z,8.97
2018-05-29T18:55:03.840Z,8.80
2018-05-29T18:57:32.044Z,9.33
2018-05-29T19:00:00.216Z,9.80
2018-05-29T19:02:28.417Z,8.60
2018-05-29T19:04:56.585Z,9.80
2018-05-29T19:07:24.751Z,9.77
2018-05-29T19:09:52.991Z,9.43
2018-05-29T19:12:21.194Z,9.10
2018-05-29T19:14:49.371Z,9.27
2018-05-29T19:17:17.519Z,9.63
2018-05-29T19:19:46.008Z,8.83
2018-05-29T19:22:14.212Z,8.60
2018-05-29T19:24:42.417Z,9.03
2018-05-29T19:27:10.637Z,9.20
2018-05-29T19:29:38.813Z,8.50
2018-05-29T19:32:07.046Z,8.77
2018-05-29T19:34:35.260Z,8.03
2018-05-29T19:37:03.461Z,7.33
2018-05-29T19:39:31.638Z,7.23
2018-05-29T19:41:59.800Z,6.63
2018-05-29T19:44:28.082Z,7.00
2018-05-29T19:46:56.283Z,6.60
2018-05-29T19:49:24.465Z,7.53
2018-05-29T19:51:52.645Z,7.40
2018-05-29T19:54:20.845Z,7.40
2018-05-29T19:56:49.056Z,8.60
2018-05-29T19:59:17.227Z,8.87
2018-05-29T20:01:45.414Z,11.27
2018-05-29T20:04:13.582Z,8.77
2018-05-29T20:06:41.787Z,7.30
2018-05-29T20:09:09.947Z,6.60
2018-05-29T20:11:38.167Z,7.57
2018-05-29T20:14:06.325Z,6.90
2018-05-29T20:16:34.487Z,6.83
2018-05-29T20:19:03.643Z,6.50
2018-05-29T20:21:31.825Z,6.00
2018-05-29T20:24:00.054Z,6.33
2018-05-29T20:26:28.256Z,6.53
2018-05-29T20:28:56.466Z,5.53
2018-05-29T20:31:24.701Z,6.10
2018-05-29T20:33:52.823Z,5.80
2018-05-29T20:36:21.025Z,5.80
2018-05-29T20:38:49.227Z,5.27
2018-05-29T20:41:17.408Z,5.30
2018-05-29T20:43:45.648Z,5.43
2018-05-29T20:46:13.754Z,5.20
2018-05-29T20:48:41.928Z,5.07
2018-05-29T20:51:10.127Z,5.07
2018-05-29T20:53:41.256Z,5.77
2018-05-29T20:56:09.483Z,5.20
2018-05-29T20:58:37.623Z,5.63
2018-05-29T21:01:05.836Z,5.23
2018-05-29T21:03:34.004Z,5.90
2018-05-29T21:06:02.189Z,4.83
2018-05-29T21:08:30.374Z,6.60
2018-05-29T21:10:58.530Z,5.87
2018-05-29T21:13:26.713Z,5.53
2018-05-29T21:15:54.891Z,5.73
2018-05-29T21:18:23.035Z,5.40
2018-05-29T21:20:51.219Z,5.53
2018-05-29T21:23:19.394Z,5.87
2018-05-29T21:25:47.580Z,6.10
2018-05-29T21:28:15.772Z,5.10
2018-05-29T21:30:43.969Z,5.57
2018-05-29T21:33:12.123Z,5.60
2018-05-29T21:35:40.317Z,5.80
2018-05-29T21:38:08.483Z,6.07
2018-05-29T21:40:36.682Z,5.77
2018-05-29T21:43:04.852Z,6.03
2018-05-29T21:45:33.059Z,9.53
2018-05-29T21:48:01.256Z,5.60
2018-05-29T21:50:29.512Z,9.70
2018-05-29T21:52:57.704Z,5.63
2018-05-29T21:55:25.866Z,6.70
2018-05-29T21:57:54.057Z,5.60
2018-05-29T22:00:24.504Z,6.03
2018-05-29T22:02:52.693Z,4.87
2018-05-29T22:05:20.861Z,5.90
2018-05-29T22:07:49.044Z,5.97
2018-05-29T22:10:17.196Z,5.87
2018-05-29T22:12:45.386Z,5.53
2018-05-29T22:15:13.632Z,6.13
2018-05-29T22:17:41.805Z,5.43
2018-05-29T22:20:09.986Z,5.73
2018-05-29T22:22:38.143Z,6.00
2018-05-29T22:27:40.805Z,6.27
2018-05-29T22:30:09.303Z,5.17
2018-05-29T22:32:37.460Z,5.97
2018-05-29T22:35:05.604Z,6.20
2018-05-29T22:37:33.797Z,5.93
2018-05-29T22:40:01.990Z,6.53
2018-05-29T22:42:30.201Z,6.27
2018-05-29T22:44:58.371Z,6.90
2018-05-29T22:47:26.610Z,6.00
2018-05-29T22:49:54.806Z,6.60
2018-05-29T22:52:22.978Z,6.07
2018-05-29T22:54:51.184Z,6.87
2018-05-29T22:57:19.336Z,6.23
2018-05-29T22:59:47.549Z,6.73
2018-05-29T23:02:15.767Z,5.57
2018-05-29T23:04:43.991Z,6.77
2018-05-29T23:07:12.148Z,6.23
2018-05-29T23:09:40.349Z,6.33
2018-05-29T23:12:08.536Z,6.40
2018-05-29T23:14:36.886Z,6.73
2018-05-29T23:17:05.068Z,6.03
2018-05-29T23:19:33.211Z,6.33
2018-05-29T23:22:01.410Z,6.30
2018-05-29T23:24:29.577Z,6.43
2018-05-29T23:26:57.777Z,6.40
2018-05-29T23:29:26.044Z,6.87
2018-05-29T23:31:54.241Z,6.50
2018-05-29T23:34:22.421Z,6.60
2018-05-29T23:36:51.454Z,6.80
2018-05-29T23:39:19.631Z,7.00
2018-05-29T23:41:47.788Z,6.10
2018-05-29T23:44:15.990Z,7.03
2018-05-29T23:46:44.174Z,6.07
2018-05-29T23:49:12.789Z,6.77
2018-05-29T23:51:40.941Z,6.60
2018-05-29T23:54:09.149Z,6.03
2018-05-29T23:56:37.344Z,6.70
2018-05-29T23:59:05.550Z,6.60
